createdAt,value
2022-11-01T00:04:45.060Z,9.50
2022-11-01T00:09:50.084Z,14.43
2022-11-01T00:14:53.636Z,11.83
2022-11-01T00:19:57.029Z,4.37
2022-11-01T00:25:01.728Z,9.07
2022-11-01T00:30:06.232Z,7.87
2022-11-01T00:35:09.964Z,9.43
2022-11-01T00:40:15.044Z,10.47
2022-11-01T00:45:18.962Z,11.73
2022-11-01T00:50:22.605Z,11.13
2022-11-01T00:55:27.527Z,8.73
2022-11-01T01:00:31.306Z,12.53
2022-11-01T01:05:35.238Z,11.50
2022-11-01T01:10:40.028Z,11.40
2022-11-01T01:15:43.927Z,7.23
2022-11-01T01:20:47.241Z,5.10
2022-11-01T01:25:51.886Z,9.20
2022-11-01T01:30:55.282Z,12.27
2022-11-01T01:36:01.379Z,11.60
2022-11-01T01:41:26.187Z,6.10
2022-11-01T01:46:29.484Z,13.83
2022-11-01T01:51:32.832Z,9.60
2022-11-01T01:56:38.650Z,5.97
2022-11-01T02:01:42.391Z,14.13
2022-11-01T02:06:47.066Z,9.00
2022-11-01T02:11:52.044Z,13.17
2022-11-01T02:17:05.581Z,10.10
2022-11-01T02:22:18.043Z,7.00
2022-11-01T02:27:25.870Z,6.87
2022-11-01T02:32:38.561Z,6.70
2022-11-01T02:37:50.214Z,8.10
2022-11-01T02:43:01.321Z,7.03
2022-11-01T02:48:07.745Z,6.50
2022-11-01T02:53:11.844Z,5.47
2022-11-01T02:58:21.531Z,8.17
2022-11-01T03:03:29.168Z,15.00
2022-11-01T03:08:36.669Z,6.30
2022-11-01T03:13:53.939Z,9.83
2022-11-01T03:19:08.566Z,8.33
2022-11-01T03:24:21.710Z,4.93
2022-11-01T03:29:29.153Z,5.60
2022-11-01T03:34:36.945Z,4.20
2022-11-01T03:39:44.619Z,9.83
2022-11-01T03:44:50.865Z,8.27
2022-11-01T03:50:13.843Z,13.03
2022-11-01T03:55:19.057Z,6.03
2022-11-01T04:00:24.542Z,4.43
2022-11-01T04:05:30.856Z,7.87
2022-11-01T04:10:34.888Z,7.03
2022-11-01T04:15:55.608Z,10.07
2022-11-01T04:21:03.554Z,9.43
2022-11-01T04:26:08.338Z,9.53
2022-11-01T04:31:12.320Z,11.73
2022-11-01T04:36:17.222Z,14.33
2022-11-01T04:41:22.508Z,10.53
2022-11-01T04:46:27.921Z,9.13
2022-11-01T04:51:33.035Z,15.23
2022-11-01T04:56:36.503Z,8.97
2022-11-01T05:01:40.270Z,15.00
2022-11-01T05:06:45.055Z,14.30
2022-11-01T05:11:48.777Z,9.87
2022-11-01T05:16:52.152Z,17.17
2022-11-01T05:21:58.067Z,10.00
2022-11-01T05:27:02.054Z,10.23
2022-11-01T05:32:06.296Z,21.30
2022-11-01T05:37:12.068Z,26.63
2022-11-01T05:42:15.882Z,31.13
2022-11-01T05:47:19.281Z,33.57
2022-11-01T05:52:24.122Z,22.50
2022-11-01T05:57:33.150Z,19.13
2022-11-01T06:02:36.934Z,27.83
2022-11-01T06:07:41.742Z,18.20
2022-11-01T06:12:45.197Z,19.97
2022-11-01T06:17:48.748Z,13.50
2022-11-01T06:22:53.997Z,17.27
2022-11-01T06:27:57.497Z,24.20
2022-11-01T06:33:02.155Z,11.10
2022-11-01T06:38:08.356Z,21.30
2022-11-01T06:43:11.888Z,13.77
2022-11-01T06:48:16.470Z,11.57
2022-11-01T06:53:21.289Z,9.10
2022-11-01T06:58:24.690Z,8.00
2022-11-01T07:03:28.149Z,14.87
2022-11-01T07:08:33.033Z,11.50
2022-11-01T07:13:37.904Z,9.03
2022-11-01T07:18:41.333Z,7.50
2022-11-01T07:23:46.272Z,12.10
2022-11-01T07:28:49.836Z,5.50
2022-11-01T07:33:53.225Z,5.37
2022-11-01T07:38:58.049Z,7.63
2022-11-01T07:44:01.493Z,5.07
2022-11-01T07:49:04.929Z,7.13
2022-11-01T07:54:09.702Z,9.60
2022-11-01T07:59:13.357Z,4.40
2022-11-01T08:04:16.742Z,3.83
2022-11-01T08:09:23.199Z,4.20
2022-11-01T08:14:26.972Z,2.67
2022-11-01T08:19:30.457Z,2.30
2022-11-01T08:24:35.215Z,1.93
2022-11-01T08:29:38.662Z,1.60
2022-11-01T08:34:42.072Z,3.03
2022-11-01T08:39:46.930Z,1.10
2022-11-01T08:44:50.443Z,0.90
2022-11-01T08:49:53.976Z,0.93
2022-11-01T08:54:58.774Z,0.90
2022-11-01T09:00:02.391Z,1.73
2022-11-01T09:05:07.084Z,1.80
2022-11-01T09:10:12.621Z,1.40
2022-11-01T09:15:16.013Z,4.57
2022-11-01T09:20:19.851Z,2.80
2022-11-01T09:25:24.866Z,4.43
2022-11-01T09:30:28.781Z,4.27
2022-11-01T09:35:32.264Z,6.13
2022-11-01T09:40:45.330Z,3.93
2022-11-01T09:45:51.003Z,6.43
2022-11-01T09:50:55.054Z,2.97
2022-11-01T09:56:10.155Z,2.40
2022-11-01T10:01:26.860Z,6.50
2022-11-01T10:06:39.104Z,3.00
2022-11-01T10:12:00.379Z,4.70
2022-11-01T10:17:14.534Z,4.43
2022-11-01T10:22:19.628Z,5.20
2022-11-01T10:27:33.055Z,3.03
2022-11-01T10:32:44.070Z,5.00
2022-11-01T10:38:04.024Z,2.30
2022-11-01T10:43:19.932Z,2.77
2022-11-01T10:48:31.993Z,2.47
2022-11-01T10:53:42.039Z,2.33
2022-11-01T10:58:54.666Z,2.33
2022-11-01T11:04:01.424Z,4.70
2022-11-01T11:09:06.300Z,10.83
2022-11-01T11:14:14.074Z,4.67
2022-11-01T11:19:25.232Z,2.43
2022-11-01T11:24:33.769Z,4.80
2022-11-01T11:29:41.184Z,3.40
2022-11-01T11:34:44.963Z,4.87
2022-11-01T11:40:02.513Z,4.50
2022-11-01T11:45:18.182Z,2.87
2022-11-01T11:50:32.899Z,1.90
2022-11-01T11:55:42.239Z,5.57
2022-11-01T12:00:50.069Z,5.83
2022-11-01T12:06:00.830Z,2.00
2022-11-01T12:11:05.762Z,2.40
2022-11-01T12:16:17.755Z,7.47
2022-11-01T12:21:25.403Z,1.80
2022-11-01T12:26:31.786Z,1.73
2022-11-01T12:31:39.337Z,2.10
2022-11-01T12:36:47.072Z,3.97
2022-11-01T12:41:59.350Z,1.50
2022-11-01T12:47:11.814Z,1.70
2022-11-01T12:52:22.439Z,2.00
2022-11-01T12:57:26.093Z,1.60
2022-11-01T13:02:52.532Z,3.80
2022-11-01T13:08:05.490Z,1.60
2022-11-01T13:13:17.944Z,2.97
2022-11-01T13:18:34.335Z,2.00
2022-11-01T13:23:39.481Z,2.83
2022-11-01T13:28:55.202Z,7.90
2022-11-01T13:34:11.091Z,1.73
2022-11-01T13:39:24.716Z,1.40
2022-11-01T13:44:33.867Z,0.80
2022-11-01T13:50:04.967Z,1.13
2022-11-01T13:55:20.218Z,0.70
2022-11-01T14:00:40.148Z,4.10
2022-11-01T14:05:46.400Z,2.40
2022-11-01T14:10:51.476Z,0.73
2022-11-01T14:16:20.933Z,0.97
2022-11-01T14:21:32.197Z,0.93
2022-11-01T14:26:46.279Z,1.00
2022-11-01T14:31:53.728Z,1.27
2022-11-01T14:37:04.420Z,2.03
2022-11-01T14:42:15.111Z,1.07
2022-11-01T14:47:29.161Z,2.40
2022-11-01T14:52:40.983Z,2.67
2022-11-01T14:57:45.355Z,2.00
2022-11-01T15:02:48.855Z,2.37
2022-11-01T15:07:56.251Z,1.53
2022-11-01T15:13:01.742Z,2.10
2022-11-01T15:18:09.226Z,0.60
2022-11-01T15:23:19.463Z,1.07
2022-11-01T15:28:26.779Z,0.80
2022-11-01T15:33:32.219Z,0.60
2022-11-01T15:38:51.089Z,0.97
2022-11-01T15:43:55.715Z,0.80
2022-11-01T15:49:05.157Z,1.67
2022-11-01T15:54:20.870Z,0.87
2022-11-01T15:59:28.835Z,1.00
2022-11-01T16:04:40.663Z,1.00
2022-11-01T16:09:48.372Z,7.33
2022-11-01T16:14:54.465Z,1.43
2022-11-01T16:19:58.024Z,1.20
2022-11-01T16:25:05.513Z,0.53
2022-11-01T16:30:34.343Z,0.63
2022-11-01T16:35:38.744Z,1.33
2022-11-01T16:40:44.064Z,2.80
2022-11-01T16:45:47.896Z,5.47
2022-11-01T16:50:53.212Z,12.53
2022-11-01T16:56:16.788Z,3.80
2022-11-01T17:01:35.070Z,2.97
2022-11-01T17:06:39.581Z,2.03
2022-11-01T17:11:50.714Z,0.97
2022-11-01T17:16:56.557Z,2.87
2022-11-01T17:22:02.693Z,3.97
2022-11-01T17:27:08.865Z,1.20
2022-11-01T17:32:12.603Z,6.63
2022-11-01T17:37:17.727Z,1.77
2022-11-01T17:42:22.296Z,1.60
2022-11-01T17:47:26.825Z,1.37
2022-11-01T17:52:30.643Z,1.03
2022-11-01T17:57:35.439Z,1.17
2022-11-01T18:02:39.434Z,0.70
2022-11-01T18:07:45.257Z,5.63
2022-11-01T18:13:19.603Z,4.43
2022-11-01T18:18:33.014Z,0.70
2022-11-01T18:23:38.316Z,5.93
2022-11-01T18:28:44.288Z,2.87
2022-11-01T18:33:54.810Z,8.93
2022-11-01T18:39:07.130Z,1.50
2022-11-01T18:44:14.520Z,0.70
2022-11-01T18:49:18.156Z,1.50
2022-11-01T18:54:25.944Z,3.00
2022-11-01T18:59:32.718Z,2.57
2022-11-01T19:04:37.639Z,2.83
2022-11-01T19:09:43.918Z,1.07
2022-11-01T19:14:57.559Z,1.57
2022-11-01T19:20:01.157Z,2.43
2022-11-01T19:25:20.841Z,1.80
2022-11-01T19:30:28.509Z,3.03
2022-11-01T19:35:31.858Z,7.10
2022-11-01T19:40:36.224Z,3.63
2022-11-01T19:45:47.000Z,1.37
2022-11-01T19:50:51.094Z,14.00
2022-11-01T19:55:56.623Z,2.67
2022-11-01T20:01:20.981Z,3.80
2022-11-01T20:06:30.010Z,2.20
2022-11-01T20:11:34.831Z,3.40
2022-11-01T20:16:41.897Z,6.90
2022-11-01T20:21:47.086Z,5.33
2022-11-01T20:26:50.799Z,1.53
2022-11-01T20:31:57.091Z,2.73
2022-11-01T20:37:27.031Z,2.30
2022-11-01T20:42:28.510Z,1.80
2022-11-01T20:47:33.912Z,6.80
2022-11-01T20:52:40.050Z,3.27
2022-11-01T20:57:43.951Z,3.60
2022-11-01T21:02:49.508Z,3.47
2022-11-01T21:07:58.164Z,3.03
2022-11-01T21:13:04.443Z,1.20
2022-11-01T21:18:34.304Z,3.23
2022-11-01T21:23:43.145Z,3.50
2022-11-01T21:28:49.969Z,1.47
2022-11-01T21:33:56.802Z,2.30
2022-11-01T21:39:01.925Z,5.20
2022-11-01T21:44:24.560Z,3.90
2022-11-01T21:49:31.223Z,1.90
2022-11-01T21:54:36.083Z,7.93
2022-11-01T21:59:40.049Z,1.40
2022-11-01T22:04:45.947Z,4.97
2022-11-01T22:09:49.303Z,1.90
2022-11-01T22:14:52.735Z,18.03
2022-11-01T22:19:57.452Z,10.30
2022-11-01T22:25:02.089Z,2.03
2022-11-01T22:30:06.408Z,2.33
2022-11-01T22:35:11.402Z,8.77
2022-11-01T22:40:16.642Z,2.03
2022-11-01T22:45:20.068Z,5.30
2022-11-01T22:50:29.493Z,0.90
2022-11-01T22:55:44.148Z,6.10
2022-11-01T23:00:47.751Z,2.87
2022-11-01T23:05:55.327Z,5.30
2022-11-01T23:10:59.273Z,4.33
2022-11-01T23:16:04.243Z,10.63
2022-11-01T23:21:11.228Z,3.20
2022-11-01T23:26:16.957Z,3.60
2022-11-01T23:31:21.751Z,4.63
2022-11-01T23:36:30.330Z,3.53
2022-11-01T23:41:36.017Z,3.63
2022-11-01T23:46:39.584Z,2.70
2022-11-01T23:51:44.465Z,6.03
2022-11-01T23:56:47.885Z,1.83
